Date,TemperatureHighF,TemperatureAvgF,TemperatureLowF,DewpointHighF,DewpointAvgF,DewpointLowF,HumidityHigh,HumidityAvg,HumidityLow,PressureMaxIn,PressureMinIn,WindSpeedMaxMPH,WindSpeedAvgMPH,GustSpeedMaxMPH,PrecipitationSumIn
2013-7-1,98.5,80.7,64.0,0.0,0.0,0.0,0,0,100,0.00,0.00,8,2,8,0.00
2013-7-2,89.6,74.8,59.0,0.0,0.0,0.0,0,0,100,0.00,0.00,13,2,16,0.00
2013-7-3,87.5,72.7,60.2,0.0,0.0,0.0,0,0,100,0.00,0.00,10,4,12,0.00
2013-7-4,86.7,67.4,58.8,0.0,0.0,0.0,0,0,100,0.00,0.00,8,2,8,0.00
2013-7-5,88.2,69.6,55.0,0.0,0.0,0.0,0,0,100,0.00,0.00,7,2,9,0.00
2013-7-6,87.5,70.9,53.6,0.0,0.0,0.0,0,0,100,0.00,0.00,9,2,11,0.00
2013-7-7,89.7,69.7,56.1,0.0,0.0,0.0,0,0,100,0.00,0.00,6,2,8,0.00
2013-7-8,90.7,70.7,55.5,0.0,0.0,0.0,0,0,100,0.00,0.00,7,2,9,0.00
2013-7-9,91.4,74.1,56.4,0.0,0.0,0.0,0,0,100,0.00,0.00,10,3,12,0.00
2013-7-10,84.8,67.7,57.0,0.0,0.0,0.0,0,0,100,0.00,0.00,9,3,10,0.00
2013-7-11,86.0,65.3,55.7,0.0,0.0,0.0,0,0,100,0.00,0.00,10,4,11,0.00
2013-7-12,79.0,62.9,53.6,0.0,0.0,0.0,0,0,100,0.00,0.00,8,2,9,0.00
2013-7-13,84.1,68.2,48.3,0.0,0.0,0.0,0,0,100,0.00,0.00,10,3,12,0.00
2013-7-14,94.8,72.3,50.1,0.0,0.0,0.0,0,0,100,0.00,0.00,10,3,13,0.00
2013-7-15,87.0,73.1,57.0,0.0,0.0,0.0,0,0,100,0.00,0.00,11,5,14,0.00
2013-7-16,92.6,76.0,61.9,0.0,0.0,0.0,0,0,100,0.00,0.00,10,4,12,0.00
2013-7-17,84.2,69.3,58.4,0.0,0.0,0.0,0,0,100,0.00,0.00,10,3,12,0.00
2013-7-18,88.5,70.3,54.8,0.0,0.0,0.0,0,0,100,0.00,0.00,7,2,9,0.00
2013-7-19,90.3,70.7,55.6,0.0,0.0,0.0,0,0,100,0.00,0.00,7,3,9,0.00
2013-7-20,86.2,67.7,53.8,0.0,0.0,0.0,0,0,100,0.00,0.00,7,2,7,0.00
2013-7-21,88.8,68.9,55.0,0.0,0.0,0.0,0,0,100,0.00,0.00,6,2,7,0.00
2013-7-22,88.8,69.9,56.4,0.0,0.0,0.0,0,0,100,0.00,0.00,10,2,11,0.00
2013-7-23,91.1,72.0,53.8,0.0,0.0,0.0,0,0,100,0.00,0.00,9,3,11,0.00
2013-7-24,94.1,75.0,55.1,0.0,0.0,0.0,0,0,100,0.00,0.00,8,3,10,0.00
2013-7-25,95.4,73.9,54.0,0.0,0.0,0.0,0,0,100,0.00,0.00,8,3,8,0.00
2013-7-26,94.7,74.8,55.5,0.0,0.0,0.0,0,0,100,0.00,0.00,12,3,14,0.00
2013-7-27,89.4,70.6,53.5,0.0,0.0,0.0,0,0,100,0.00,0.00,9,2,10,0.00
2013-7-28,80.4,63.9,53.2,0.0,0.0,0.0,0,0,100,0.00,0.00,9,3,12,0.00
2013-7-29,88.0,68.7,54.3,0.0,0.0,0.0,0,0,100,0.00,0.00,7,2,9,0.00
2013-7-30,90.4,70.0,55.1,0.0,0.0,0.0,0,0,100,0.00,0.00,7,2,8,0.00
2013-7-31,81.7,65.1,55.6,0.0,0.0,0.0,0,0,100,0.00,0.00,7,2,8,0.00